Terminal Aerodrome Forecast
Issued by NWS Jackson, MS

Home | Current Version | Previous Version | Text Only | Print | Product List | Glossary On
Versions: 1 2 3 4 5 6 7 8 9 10 11 12 13 14 15
000
FTUS44 KJAN 210549 RRA
TAFGLH
TAF
KGLH 210549Z 2106/2206 20007KT 6SM -SHRA VCTS BKN090CB
     FM211000 17009KT P6SM OVC090
     FM211300 13006KT 5SM BR FEW090 SCT250
     FM211500 15007KT 6SM BR FEW090 SCT250
     FM211600 16008KT P6SM FEW090 SCT250
     FM212000 19008KT P6SM BKN025 BKN250
     FM220000 14006KT 5SM -TSRA BR BKN010CB OVC025=

USA.gov is the U.S. government's official web portal to all federal, state and local government web resources and services.